sensor_id;sensor_type;location;lat;lon;timestamp;P1;durP1;ratioP1;P2;durP2;ratioP2
1593;SDS011;790;47.000;16.084;2023-04-24T00:01:24;5.17;;;4.70;;
1593;SDS011;790;47.000;16.084;2023-04-24T00:03:53;5.20;;;4.53;;
1593;SDS011;790;47.000;16.084;2023-04-24T00:06:21;4.40;;;3.97;;
1593;SDS011;790;47.000;16.084;2023-04-24T00:08:48;4.33;;;4.03;;
1593;SDS011;790;47.000;16.084;2023-04-24T00:11:15;4.10;;;3.80;;
1593;SDS011;790;47.000;16.084;2023-04-24T00:13:43;4.13;;;3.83;;
1593;SDS011;790;47.000;16.084;2023-04-24T00:16:11;4.83;;;4.43;;
1593;SDS011;790;47.000;16.084;2023-04-24T00:18:38;6.63;;;4.93;;
1593;SDS011;790;47.000;16.084;2023-04-24T00:21:08;4.83;;;4.40;;
1593;SDS011;790;47.000;16.084;2023-04-24T00:23:35;5.20;;;4.80;;
1593;SDS011;790;47.000;16.084;2023-04-24T00:26:02;4.57;;;4.27;;
1593;SDS011;790;47.000;16.084;2023-04-24T00:28:29;4.97;;;4.00;;
1593;SDS011;790;47.000;16.084;2023-04-24T00:30:56;4.20;;;4.00;;
1593;SDS011;790;47.000;16.084;2023-04-24T00:33:23;6.80;;;3.90;;
1593;SDS011;790;47.000;16.084;2023-04-24T00:35:50;5.07;;;4.30;;
1593;SDS011;790;47.000;16.084;2023-04-24T00:38:19;4.00;;;3.50;;
1593;SDS011;790;47.000;16.084;2023-04-24T00:40:47;4.07;;;3.77;;
1593;SDS011;790;47.000;16.084;2023-04-24T00:43:15;4.33;;;4.03;;
1593;SDS011;790;47.000;16.084;2023-04-24T00:45:42;3.93;;;3.73;;
1593;SDS011;790;47.000;16.084;2023-04-24T00:48:09;4.57;;;4.20;;
1593;SDS011;790;47.000;16.084;2023-04-24T00:50:38;4.47;;;3.70;;
1593;SDS011;790;47.000;16.084;2023-04-24T00:53:05;5.00;;;4.30;;
1593;SDS011;790;47.000;16.084;2023-04-24T00:55:34;4.80;;;4.33;;
1593;SDS011;790;47.000;16.084;2023-04-24T00:58:02;5.00;;;4.60;;
1593;SDS011;790;47.000;16.084;2023-04-24T01:00:29;4.30;;;4.03;;
1593;SDS011;790;47.000;16.084;2023-04-24T01:02:57;4.50;;;4.20;;
1593;SDS011;790;47.000;16.084;2023-04-24T01:05:26;4.07;;;3.80;;
1593;SDS011;790;47.000;16.084;2023-04-24T01:07:53;6.30;;;4.50;;
1593;SDS011;790;47.000;16.084;2023-04-24T01:10:21;3.83;;;3.60;;
1593;SDS011;790;47.000;16.084;2023-04-24T01:12:51;4.13;;;3.83;;
1593;SDS011;790;47.000;16.084;2023-04-24T01:15:18;4.30;;;3.90;;
1593;SDS011;790;47.000;16.084;2023-04-24T01:17:45;4.40;;;4.00;;
1593;SDS011;790;47.000;16.084;2023-04-24T01:20:12;4.10;;;3.80;;
1593;SDS011;790;47.000;16.084;2023-04-24T01:22:42;4.20;;;3.90;;
1593;SDS011;790;47.000;16.084;2023-04-24T01:25:09;3.93;;;3.63;;
1593;SDS011;790;47.000;16.084;2023-04-24T01:27:36;4.60;;;3.73;;
1593;SDS011;790;47.000;16.084;2023-04-24T01:30:04;4.23;;;4.03;;
1593;SDS011;790;47.000;16.084;2023-04-24T01:32:32;4.10;;;3.70;;
1593;SDS011;790;47.000;16.084;2023-04-24T01:35:00;3.97;;;3.67;;
1593;SDS011;790;47.000;16.084;2023-04-24T01:37:27;4.27;;;4.07;;
1593;SDS011;790;47.000;16.084;2023-04-24T01:39:56;5.37;;;4.00;;
1593;SDS011;790;47.000;16.084;2023-04-24T01:42:23;4.10;;;3.80;;
1593;SDS011;790;47.000;16.084;2023-04-24T01:45:10;3.93;;;3.63;;
1593;SDS011;790;47.000;16.084;2023-04-24T01:47:57;5.37;;;4.27;;
1593;SDS011;790;47.000;16.084;2023-04-24T01:50:43;4.17;;;3.80;;
1593;SDS011;790;47.000;16.084;2023-04-24T01:53:29;4.67;;;4.27;;
1593;SDS011;790;47.000;16.084;2023-04-24T01:56:16;4.50;;;4.20;;
1593;SDS011;790;47.000;16.084;2023-04-24T01:59:02;5.20;;;4.63;;
1593;SDS011;790;47.000;16.084;2023-04-24T02:01:48;4.87;;;4.47;;
1593;SDS011;790;47.000;16.084;2023-04-24T02:04:34;4.27;;;3.97;;
1593;SDS011;790;47.000;16.084;2023-04-24T02:07:19;6.53;;;4.77;;
1593;SDS011;790;47.000;16.084;2023-04-24T02:10:06;4.73;;;4.37;;
1593;SDS011;790;47.000;16.084;2023-04-24T02:12:53;4.53;;;4.17;;
1593;SDS011;790;47.000;16.084;2023-04-24T02:15:39;5.43;;;4.93;;
1593;SDS011;790;47.000;16.084;2023-04-24T02:18:25;5.30;;;4.90;;
1593;SDS011;790;47.000;16.084;2023-04-24T02:21:11;5.20;;;4.80;;
1593;SDS011;790;47.000;16.084;2023-04-24T02:23:56;4.57;;;4.27;;
1593;SDS011;790;47.000;16.084;2023-04-24T02:26:42;4.27;;;3.97;;
1593;SDS011;790;47.000;16.084;2023-04-24T02:29:30;4.80;;;4.50;;
1593;SDS011;790;47.000;16.084;2023-04-24T02:32:15;5.00;;;4.60;;
1593;SDS011;790;47.000;16.084;2023-04-24T02:35:01;4.27;;;3.97;;
1593;SDS011;790;47.000;16.084;2023-04-24T02:37:47;4.73;;;4.33;;
1593;SDS011;790;47.000;16.084;2023-04-24T02:40:33;4.60;;;4.30;;
1593;SDS011;790;47.000;16.084;2023-04-24T02:43:18;4.47;;;4.17;;
1593;SDS011;790;47.000;16.084;2023-04-24T02:46:05;4.33;;;4.03;;
1593;SDS011;790;47.000;16.084;2023-04-24T02:48:51;5.03;;;4.63;;
1593;SDS011;790;47.000;16.084;2023-04-24T02:51:36;4.87;;;4.47;;
1593;SDS011;790;47.000;16.084;2023-04-24T02:54:24;6.30;;;4.40;;
1593;SDS011;790;47.000;16.084;2023-04-24T02:57:10;5.03;;;4.73;;
1593;SDS011;790;47.000;16.084;2023-04-24T02:59:55;4.23;;;3.93;;
1593;SDS011;790;47.000;16.084;2023-04-24T03:02:42;5.23;;;4.80;;
1593;SDS011;790;47.000;16.084;2023-04-24T03:05:28;4.30;;;4.07;;
1593;SDS011;790;47.000;16.084;2023-04-24T03:08:14;5.10;;;4.70;;
1593;SDS011;790;47.000;16.084;2023-04-24T03:11:01;5.67;;;4.40;;
1593;SDS011;790;47.000;16.084;2023-04-24T03:13:46;4.87;;;4.47;;
1593;SDS011;790;47.000;16.084;2023-04-24T03:16:32;4.60;;;4.30;;
1593;SDS011;790;47.000;16.084;2023-04-24T03:19:19;5.00;;;4.60;;
1593;SDS011;790;47.000;16.084;2023-04-24T03:22:05;4.40;;;4.00;;
1593;SDS011;790;47.000;16.084;2023-04-24T03:24:52;4.90;;;4.50;;
1593;SDS011;790;47.000;16.084;2023-04-24T03:27:39;5.47;;;5.07;;
1593;SDS011;790;47.000;16.084;2023-04-24T03:30:25;4.73;;;4.33;;
1593;SDS011;790;47.000;16.084;2023-04-24T03:33:11;5.10;;;4.70;;
1593;SDS011;790;47.000;16.084;2023-04-24T03:35:59;4.40;;;4.10;;
1593;SDS011;790;47.000;16.084;2023-04-24T03:38:44;6.37;;;4.50;;
1593;SDS011;790;47.000;16.084;2023-04-24T03:41:29;4.60;;;4.20;;
1593;SDS011;790;47.000;16.084;2023-04-24T03:44:15;4.97;;;4.60;;
1593;SDS011;790;47.000;16.084;2023-04-24T03:47:01;6.33;;;4.03;;
1593;SDS011;790;47.000;16.084;2023-04-24T03:49:46;5.20;;;4.70;;
1593;SDS011;790;47.000;16.084;2023-04-24T03:52:33;5.90;;;5.30;;
1593;SDS011;790;47.000;16.084;2023-04-24T03:55:19;4.87;;;4.47;;
1593;SDS011;790;47.000;16.084;2023-04-24T03:58:06;5.10;;;4.77;;
1593;SDS011;790;47.000;16.084;2023-04-24T04:00:52;5.43;;;4.93;;
1593;SDS011;790;47.000;16.084;2023-04-24T04:03:38;15.80;;;5.20;;
1593;SDS011;790;47.000;16.084;2023-04-24T04:06:23;6.37;;;5.67;;
1593;SDS011;790;47.000;16.084;2023-04-24T04:09:11;6.40;;;5.80;;
1593;SDS011;790;47.000;16.084;2023-04-24T04:11:57;6.00;;;5.60;;
1593;SDS011;790;47.000;16.084;2023-04-24T04:14:44;5.70;;;5.20;;
1593;SDS011;790;47.000;16.084;2023-04-24T04:17:29;5.73;;;5.23;;
1593;SDS011;790;47.000;16.084;2023-04-24T04:20:15;5.23;;;4.90;;
1593;SDS011;790;47.000;16.084;2023-04-24T04:23:01;6.00;;;5.50;;
1593;SDS011;790;47.000;16.084;2023-04-24T04:25:48;8.97;;;5.30;;
1593;SDS011;790;47.000;16.084;2023-04-24T04:28:35;6.77;;;5.73;;
1593;SDS011;790;47.000;16.084;2023-04-24T04:31:21;6.43;;;5.83;;
1593;SDS011;790;47.000;16.084;2023-04-24T04:34:08;6.23;;;5.67;;
1593;SDS011;790;47.000;16.084;2023-04-24T04:36:55;5.70;;;5.20;;
1593;SDS011;790;47.000;16.084;2023-04-24T04:39:43;6.27;;;5.67;;
1593;SDS011;790;47.000;16.084;2023-04-24T04:42:30;6.40;;;5.50;;
1593;SDS011;790;47.000;16.084;2023-04-24T04:45:16;5.90;;;5.40;;
1593;SDS011;790;47.000;16.084;2023-04-24T04:48:02;5.67;;;5.27;;
1593;SDS011;790;47.000;16.084;2023-04-24T04:50:48;7.63;;;7.03;;
1593;SDS011;790;47.000;16.084;2023-04-24T04:53:34;7.93;;;7.23;;
1593;SDS011;790;47.000;16.084;2023-04-24T04:56:20;8.30;;;7.47;;
1593;SDS011;790;47.000;16.084;2023-04-24T04:59:07;8.07;;;7.40;;
1593;SDS011;790;47.000;16.084;2023-04-24T05:01:52;8.67;;;7.77;;
1593;SDS011;790;47.000;16.084;2023-04-24T05:04:38;8.53;;;7.73;;
1593;SDS011;790;47.000;16.084;2023-04-24T05:07:24;7.93;;;7.33;;
1593;SDS011;790;47.000;16.084;2023-04-24T05:10:10;8.70;;;7.93;;
1593;SDS011;790;47.000;16.084;2023-04-24T05:12:56;9.00;;;8.20;;
1593;SDS011;790;47.000;16.084;2023-04-24T05:15:43;8.53;;;7.37;;
1593;SDS011;790;47.000;16.084;2023-04-24T05:18:28;8.17;;;7.47;;
1593;SDS011;790;47.000;16.084;2023-04-24T05:21:14;10.90;;;8.10;;
1593;SDS011;790;47.000;16.084;2023-04-24T05:24:00;8.07;;;7.30;;
1593;SDS011;790;47.000;16.084;2023-04-24T05:26:46;8.67;;;7.97;;
1593;SDS011;790;47.000;16.084;2023-04-24T05:29:32;10.97;;;9.30;;
1593;SDS011;790;47.000;16.084;2023-04-24T05:32:19;9.60;;;8.80;;
1593;SDS011;790;47.000;16.084;2023-04-24T05:35:05;8.70;;;7.90;;
1593;SDS011;790;47.000;16.084;2023-04-24T05:37:51;10.70;;;9.60;;
1593;SDS011;790;47.000;16.084;2023-04-24T05:40:37;12.83;;;11.63;;
1593;SDS011;790;47.000;16.084;2023-04-24T05:43:23;14.77;;;13.30;;
1593;SDS011;790;47.000;16.084;2023-04-24T05:46:09;10.53;;;9.63;;
1593;SDS011;790;47.000;16.084;2023-04-24T05:48:56;8.67;;;7.97;;
1593;SDS011;790;47.000;16.084;2023-04-24T05:51:42;8.23;;;7.63;;
1593;SDS011;790;47.000;16.084;2023-04-24T05:54:27;9.63;;;8.57;;
1593;SDS011;790;47.000;16.084;2023-04-24T05:57:13;7.90;;;7.10;;
1593;SDS011;790;47.000;16.084;2023-04-24T05:59:59;7.73;;;7.13;;
1593;SDS011;790;47.000;16.084;2023-04-24T06:02:45;7.37;;;6.73;;
1593;SDS011;790;47.000;16.084;2023-04-24T06:05:32;7.90;;;7.10;;
1593;SDS011;790;47.000;16.084;2023-04-24T06:08:18;6.97;;;6.43;;
1593;SDS011;790;47.000;16.084;2023-04-24T06:11:04;7.67;;;6.57;;
1593;SDS011;790;47.000;16.084;2023-04-24T06:13:50;7.53;;;6.80;;
1593;SDS011;790;47.000;16.084;2023-04-24T06:16:36;7.53;;;6.83;;
1593;SDS011;790;47.000;16.084;2023-04-24T06:19:23;7.30;;;6.67;;
1593;SDS011;790;47.000;16.084;2023-04-24T06:22:10;6.57;;;6.00;;
1593;SDS011;790;47.000;16.084;2023-04-24T06:24:56;9.53;;;8.73;;
1593;SDS011;790;47.000;16.084;2023-04-24T06:27:41;7.23;;;6.63;;
1593;SDS011;790;47.000;16.084;2023-04-24T06:30:27;6.27;;;5.87;;
1593;SDS011;790;47.000;16.084;2023-04-24T06:33:13;7.13;;;6.43;;
1593;SDS011;790;47.000;16.084;2023-04-24T06:36:01;6.43;;;6.00;;
1593;SDS011;790;47.000;16.084;2023-04-24T06:38:49;8.07;;;7.43;;
1593;SDS011;790;47.000;16.084;2023-04-24T06:41:35;7.53;;;6.83;;
1593;SDS011;790;47.000;16.084;2023-04-24T06:44:20;8.73;;;7.17;;
1593;SDS011;790;47.000;16.084;2023-04-24T06:47:07;7.13;;;6.53;;
1593;SDS011;790;47.000;16.084;2023-04-24T06:49:53;7.73;;;7.13;;
1593;SDS011;790;47.000;16.084;2023-04-24T06:52:40;9.33;;;8.53;;
1593;SDS011;790;47.000;16.084;2023-04-24T06:55:27;8.47;;;7.60;;
1593;SDS011;790;47.000;16.084;2023-04-24T06:58:13;8.53;;;7.80;;
1593;SDS011;790;47.000;16.084;2023-04-24T07:00:59;8.27;;;7.57;;
1593;SDS011;790;47.000;16.084;2023-04-24T07:03:45;9.60;;;8.80;;
1593;SDS011;790;47.000;16.084;2023-04-24T07:06:30;10.47;;;9.60;;
1593;SDS011;790;47.000;16.084;2023-04-24T07:09:16;8.50;;;7.80;;
1593;SDS011;790;47.000;16.084;2023-04-24T07:12:04;8.70;;;7.80;;
1593;SDS011;790;47.000;16.084;2023-04-24T07:14:51;8.13;;;7.43;;
1593;SDS011;790;47.000;16.084;2023-04-24T07:17:37;8.17;;;7.33;;
1593;SDS011;790;47.000;16.084;2023-04-24T07:20:27;8.60;;;6.97;;
1593;SDS011;790;47.000;16.084;2023-04-24T07:23:12;7.13;;;6.63;;
1593;SDS011;790;47.000;16.084;2023-04-24T07:25:59;6.97;;;6.47;;
1593;SDS011;790;47.000;16.084;2023-04-24T07:28:47;7.53;;;6.93;;
1593;SDS011;790;47.000;16.084;2023-04-24T07:31:33;8.63;;;7.83;;
1593;SDS011;790;47.000;16.084;2023-04-24T07:34:21;10.43;;;9.43;;
1593;SDS011;790;47.000;16.084;2023-04-24T07:37:07;7.97;;;7.23;;
1593;SDS011;790;47.000;16.084;2023-04-24T07:39:54;10.23;;;9.33;;
1593;SDS011;790;47.000;16.084;2023-04-24T07:42:40;9.37;;;7.90;;
1593;SDS011;790;47.000;16.084;2023-04-24T07:45:29;9.20;;;8.50;;
1593;SDS011;790;47.000;16.084;2023-04-24T07:48:17;8.20;;;7.50;;
1593;SDS011;790;47.000;16.084;2023-04-24T07:51:05;10.03;;;7.90;;
1593;SDS011;790;47.000;16.084;2023-04-24T07:53:53;9.33;;;7.33;;
1593;SDS011;790;47.000;16.084;2023-04-24T07:56:40;7.57;;;6.80;;
1593;SDS011;790;47.000;16.084;2023-04-24T07:59:26;9.03;;;7.70;;
1593;SDS011;790;47.000;16.084;2023-04-24T08:02:18;8.30;;;7.60;;
1593;SDS011;790;47.000;16.084;2023-04-24T08:05:05;7.30;;;6.70;;
1593;SDS011;790;47.000;16.084;2023-04-24T08:07:52;7.00;;;6.50;;
1593;SDS011;790;47.000;16.084;2023-04-24T08:10:38;7.07;;;6.40;;
1593;SDS011;790;47.000;16.084;2023-04-24T08:13:24;9.63;;;8.73;;
1593;SDS011;790;47.000;16.084;2023-04-24T08:16:10;11.20;;;10.20;;
1593;SDS011;790;47.000;16.084;2023-04-24T08:18:57;8.13;;;7.43;;
1593;SDS011;790;47.000;16.084;2023-04-24T08:21:43;6.93;;;6.43;;
1593;SDS011;790;47.000;16.084;2023-04-24T08:24:28;7.20;;;6.60;;
1593;SDS011;790;47.000;16.084;2023-04-24T08:27:14;8.70;;;7.93;;
1593;SDS011;790;47.000;16.084;2023-04-24T08:30:00;7.00;;;6.50;;
1593;SDS011;790;47.000;16.084;2023-04-24T08:32:47;7.30;;;6.60;;
1593;SDS011;790;47.000;16.084;2023-04-24T08:35:34;7.90;;;7.20;;
1593;SDS011;790;47.000;16.084;2023-04-24T08:38:20;7.87;;;7.03;;
1593;SDS011;790;47.000;16.084;2023-04-24T08:41:06;6.80;;;6.30;;
1593;SDS011;790;47.000;16.084;2023-04-24T08:43:54;10.60;;;7.50;;
1593;SDS011;790;47.000;16.084;2023-04-24T08:46:42;7.23;;;6.63;;
1593;SDS011;790;47.000;16.084;2023-04-24T08:49:29;6.93;;;6.20;;
1593;SDS011;790;47.000;16.084;2023-04-24T08:52:17;7.70;;;7.00;;
1593;SDS011;790;47.000;16.084;2023-04-24T08:55:04;7.40;;;6.80;;
1593;SDS011;790;47.000;16.084;2023-04-24T08:57:52;7.83;;;7.13;;
1593;SDS011;790;47.000;16.084;2023-04-24T09:00:38;7.93;;;7.23;;
1593;SDS011;790;47.000;16.084;2023-04-24T09:03:30;7.70;;;7.00;;
1593;SDS011;790;47.000;16.084;2023-04-24T09:06:18;7.17;;;6.23;;
1593;SDS011;790;47.000;16.084;2023-04-24T09:09:08;6.80;;;6.13;;
1593;SDS011;790;47.000;16.084;2023-04-24T09:11:56;7.00;;;6.30;;
1593;SDS011;790;47.000;16.084;2023-04-24T09:14:43;7.00;;;6.40;;
1593;SDS011;790;47.000;16.084;2023-04-24T09:17:30;7.00;;;6.37;;
1593;SDS011;790;47.000;16.084;2023-04-24T09:20:15;8.10;;;6.87;;
1593;SDS011;790;47.000;16.084;2023-04-24T09:23:01;8.30;;;6.77;;
1593;SDS011;790;47.000;16.084;2023-04-24T09:25:49;7.97;;;7.13;;
1593;SDS011;790;47.000;16.084;2023-04-24T09:28:40;8.50;;;7.60;;
1593;SDS011;790;47.000;16.084;2023-04-24T09:31:26;8.03;;;7.23;;
1593;SDS011;790;47.000;16.084;2023-04-24T09:34:14;7.30;;;6.60;;
1593;SDS011;790;47.000;16.084;2023-04-24T09:37:05;8.53;;;7.47;;
1593;SDS011;790;47.000;16.084;2023-04-24T09:40:06;8.53;;;7.73;;
1593;SDS011;790;47.000;16.084;2023-04-24T09:42:56;8.07;;;7.27;;
1593;SDS011;790;47.000;16.084;2023-04-24T09:45:45;8.20;;;7.50;;
1593;SDS011;790;47.000;16.084;2023-04-24T09:48:31;9.00;;;8.10;;
1593;SDS011;790;47.000;16.084;2023-04-24T09:51:17;8.13;;;7.40;;
1593;SDS011;790;47.000;16.084;2023-04-24T09:54:19;8.93;;;8.07;;
1593;SDS011;790;47.000;16.084;2023-04-24T09:57:07;9.13;;;8.23;;
1593;SDS011;790;47.000;16.084;2023-04-24T09:59:55;9.10;;;8.30;;
1593;SDS011;790;47.000;16.084;2023-04-24T10:02:42;9.83;;;8.93;;
1593;SDS011;790;47.000;16.084;2023-04-24T10:05:29;10.60;;;9.60;;
1593;SDS011;790;47.000;16.084;2023-04-24T10:08:16;9.27;;;8.37;;
1593;SDS011;790;47.000;16.084;2023-04-24T10:11:01;9.40;;;7.97;;
1593;SDS011;790;47.000;16.084;2023-04-24T10:13:48;9.57;;;8.57;;
1593;SDS011;790;47.000;16.084;2023-04-24T10:16:36;8.50;;;7.77;;
1593;SDS011;790;47.000;16.084;2023-04-24T10:19:25;9.17;;;8.27;;
1593;SDS011;790;47.000;16.084;2023-04-24T10:22:11;10.37;;;9.47;;
1593;SDS011;790;47.000;16.084;2023-04-24T10:24:57;9.10;;;8.30;;
1593;SDS011;790;47.000;16.084;2023-04-24T10:27:43;9.67;;;8.87;;
1593;SDS011;790;47.000;16.084;2023-04-24T10:30:31;9.67;;;8.77;;
1593;SDS011;790;47.000;16.084;2023-04-24T10:33:21;10.10;;;9.20;;
1593;SDS011;790;47.000;16.084;2023-04-24T10:36:08;9.77;;;8.87;;
1593;SDS011;790;47.000;16.084;2023-04-24T10:38:55;8.87;;;8.17;;
1593;SDS011;790;47.000;16.084;2023-04-24T10:41:44;12.73;;;11.53;;
1593;SDS011;790;47.000;16.084;2023-04-24T10:44:35;10.57;;;9.47;;
1593;SDS011;790;47.000;16.084;2023-04-24T10:47:21;8.93;;;8.13;;
1593;SDS011;790;47.000;16.084;2023-04-24T10:50:09;8.03;;;7.23;;
1593;SDS011;790;47.000;16.084;2023-04-24T10:53:04;7.23;;;6.73;;
1593;SDS011;790;47.000;16.084;2023-04-24T10:55:52;8.43;;;7.43;;
1593;SDS011;790;47.000;16.084;2023-04-24T10:58:49;7.33;;;6.77;;
1593;SDS011;790;47.000;16.084;2023-04-24T11:01:37;5.67;;;5.27;;
1593;SDS011;790;47.000;16.084;2023-04-24T11:04:28;5.77;;;5.27;;
1593;SDS011;790;47.000;16.084;2023-04-24T11:07:17;6.40;;;5.80;;
1593;SDS011;790;47.000;16.084;2023-04-24T11:09:47;6.23;;;5.63;;
1593;SDS011;790;47.000;16.084;2023-04-24T11:12:26;5.03;;;4.53;;
1593;SDS011;790;47.000;16.084;2023-04-24T11:14:59;4.53;;;4.23;;
1593;SDS011;790;47.000;16.084;2023-04-24T11:17:28;4.63;;;4.17;;
1593;SDS011;790;47.000;16.084;2023-04-24T11:20:00;4.63;;;4.23;;
1593;SDS011;790;47.000;16.084;2023-04-24T11:22:30;4.23;;;3.93;;
1593;SDS011;790;47.000;16.084;2023-04-24T11:25:01;6.43;;;3.63;;
1593;SDS011;790;47.000;16.084;2023-04-24T11:27:29;3.23;;;2.93;;
1593;SDS011;790;47.000;16.084;2023-04-24T11:29:59;5.67;;;4.33;;
1593;SDS011;790;47.000;16.084;2023-04-24T11:32:29;3.60;;;3.20;;
1593;SDS011;790;47.000;16.084;2023-04-24T11:35:00;3.80;;;2.90;;
1593;SDS011;790;47.000;16.084;2023-04-24T11:37:33;2.93;;;2.73;;
1593;SDS011;790;47.000;16.084;2023-04-24T11:40:02;3.53;;;3.33;;
1593;SDS011;790;47.000;16.084;2023-04-24T11:42:33;32.07;;;28.57;;
1593;SDS011;790;47.000;16.084;2023-04-24T11:45:01;2.80;;;2.70;;
1593;SDS011;790;47.000;16.084;2023-04-24T11:47:33;3.40;;;3.20;;
1593;SDS011;790;47.000;16.084;2023-04-24T11:50:00;2.67;;;2.47;;
1593;SDS011;790;47.000;16.084;2023-04-24T11:52:30;2.80;;;2.47;;
1593;SDS011;790;47.000;16.084;2023-04-24T11:54:58;3.13;;;2.77;;
1593;SDS011;790;47.000;16.084;2023-04-24T11:57:26;2.80;;;2.60;;
1593;SDS011;790;47.000;16.084;2023-04-24T11:59:58;5.33;;;2.50;;
1593;SDS011;790;47.000;16.084;2023-04-24T12:02:26;2.30;;;2.20;;
1593;SDS011;790;47.000;16.084;2023-04-24T12:04:53;3.47;;;3.10;;
1593;SDS011;790;47.000;16.084;2023-04-24T12:07:21;4.90;;;3.70;;
1593;SDS011;790;47.000;16.084;2023-04-24T12:09:55;2.60;;;2.50;;
1593;SDS011;790;47.000;16.084;2023-04-24T12:12:25;8.57;;;6.30;;
1593;SDS011;790;47.000;16.084;2023-04-24T12:14:53;2.77;;;2.57;;
1593;SDS011;790;47.000;16.084;2023-04-24T12:17:24;5.70;;;5.20;;
1593;SDS011;790;47.000;16.084;2023-04-24T12:19:56;3.50;;;1.73;;
1593;SDS011;790;47.000;16.084;2023-04-24T12:22:24;1.90;;;1.80;;
1593;SDS011;790;47.000;16.084;2023-04-24T12:24:57;6.13;;;3.73;;
1593;SDS011;790;47.000;16.084;2023-04-24T12:27:26;3.20;;;1.97;;
1593;SDS011;790;47.000;16.084;2023-04-24T12:29:55;1.83;;;1.73;;
1593;SDS011;790;47.000;16.084;2023-04-24T12:32:23;3.47;;;2.27;;
1593;SDS011;790;47.000;16.084;2023-04-24T12:34:51;2.20;;;2.00;;
1593;SDS011;790;47.000;16.084;2023-04-24T12:37:19;1.77;;;1.67;;
1593;SDS011;790;47.000;16.084;2023-04-24T12:42:32;2.10;;;2.00;;
1593;SDS011;790;47.000;16.084;2023-04-24T12:45:00;2.03;;;1.93;;
1593;SDS011;790;47.000;16.084;2023-04-24T12:47:29;2.27;;;2.10;;
1593;SDS011;790;47.000;16.084;2023-04-24T12:49:57;3.00;;;2.80;;
1593;SDS011;790;47.000;16.084;2023-04-24T12:52:25;3.50;;;2.83;;
1593;SDS011;790;47.000;16.084;2023-04-24T12:54:54;3.17;;;2.97;;
1593;SDS011;790;47.000;16.084;2023-04-24T12:57:23;3.70;;;3.50;;
1593;SDS011;790;47.000;16.084;2023-04-24T12:59:53;3.00;;;2.73;;
1593;SDS011;790;47.000;16.084;2023-04-24T13:02:21;3.20;;;3.00;;
1593;SDS011;790;47.000;16.084;2023-04-24T13:04:48;2.33;;;2.13;;
1593;SDS011;790;47.000;16.084;2023-04-24T13:07:16;2.10;;;2.00;;
1593;SDS011;790;47.000;16.084;2023-04-24T13:09:44;2.20;;;2.00;;
1593;SDS011;790;47.000;16.084;2023-04-24T13:12:11;1.73;;;1.70;;
1593;SDS011;790;47.000;16.084;2023-04-24T13:14:40;1.80;;;1.70;;
1593;SDS011;790;47.000;16.084;2023-04-24T13:17:07;2.30;;;2.20;;
1593;SDS011;790;47.000;16.084;2023-04-24T13:19:37;3.10;;;2.20;;
1593;SDS011;790;47.000;16.084;2023-04-24T13:22:05;1.87;;;1.53;;
1593;SDS011;790;47.000;16.084;2023-04-24T13:24:32;1.67;;;1.53;;
1593;SDS011;790;47.000;16.084;2023-04-24T13:27:00;1.63;;;1.53;;
1593;SDS011;790;47.000;16.084;2023-04-24T13:29:28;3.57;;;2.00;;
1593;SDS011;790;47.000;16.084;2023-04-24T13:31:57;1.60;;;1.50;;
1593;SDS011;790;47.000;16.084;2023-04-24T13:34:24;1.50;;;1.50;;
1593;SDS011;790;47.000;16.084;2023-04-24T13:36:54;4.60;;;4.20;;
1593;SDS011;790;47.000;16.084;2023-04-24T13:39:23;1.53;;;1.43;;
1593;SDS011;790;47.000;16.084;2023-04-24T13:41:51;1.70;;;1.60;;
1593;SDS011;790;47.000;16.084;2023-04-24T13:44:19;1.30;;;1.30;;
1593;SDS011;790;47.000;16.084;2023-04-24T13:46:48;2.07;;;1.87;;
1593;SDS011;790;47.000;16.084;2023-04-24T13:49:18;2.00;;;1.80;;
1593;SDS011;790;47.000;16.084;2023-04-24T13:51:45;2.13;;;1.60;;
1593;SDS011;790;47.000;16.084;2023-04-24T13:54:13;1.23;;;1.23;;
1593;SDS011;790;47.000;16.084;2023-04-24T13:56:41;1.80;;;1.70;;
1593;SDS011;790;47.000;16.084;2023-04-24T13:59:08;1.37;;;1.30;;
1593;SDS011;790;47.000;16.084;2023-04-24T14:01:35;3.30;;;1.23;;
1593;SDS011;790;47.000;16.084;2023-04-24T14:04:02;1.73;;;1.10;;
1593;SDS011;790;47.000;16.084;2023-04-24T14:06:31;4.17;;;3.87;;
1593;SDS011;790;47.000;16.084;2023-04-24T14:08:58;4.80;;;4.40;;
1593;SDS011;790;47.000;16.084;2023-04-24T14:11:26;2.40;;;1.87;;
1593;SDS011;790;47.000;16.084;2023-04-24T14:13:54;1.83;;;1.73;;
1593;SDS011;790;47.000;16.084;2023-04-24T14:16:22;1.10;;;1.10;;
1593;SDS011;790;47.000;16.084;2023-04-24T14:18:49;1.07;;;1.07;;
1593;SDS011;790;47.000;16.084;2023-04-24T14:21:17;5.70;;;0.97;;
1593;SDS011;790;47.000;16.084;2023-04-24T14:23:45;0.97;;;0.90;;
1593;SDS011;790;47.000;16.084;2023-04-24T14:26:12;0.90;;;0.90;;
1593;SDS011;790;47.000;16.084;2023-04-24T14:28:39;0.80;;;0.80;;
1593;SDS011;790;47.000;16.084;2023-04-24T14:31:07;0.90;;;0.90;;
1593;SDS011;790;47.000;16.084;2023-04-24T14:33:34;1.73;;;1.10;;
1593;SDS011;790;47.000;16.084;2023-04-24T14:36:01;1.17;;;1.07;;
1593;SDS011;790;47.000;16.084;2023-04-24T14:38:30;0.83;;;0.83;;
1593;SDS011;790;47.000;16.084;2023-04-24T14:41:03;1.40;;;1.30;;
1593;SDS011;790;47.000;16.084;2023-04-24T14:43:34;1.53;;;1.00;;
1593;SDS011;790;47.000;16.084;2023-04-24T14:46:02;1.40;;;1.30;;
1593;SDS011;790;47.000;16.084;2023-04-24T14:48:29;1.93;;;1.80;;
1593;SDS011;790;47.000;16.084;2023-04-24T14:50:56;2.10;;;1.90;;
1593;SDS011;790;47.000;16.084;2023-04-24T14:53:24;1.70;;;1.60;;
1593;SDS011;790;47.000;16.084;2023-04-24T14:55:51;1.47;;;1.40;;
1593;SDS011;790;47.000;16.084;2023-04-24T14:58:19;1.20;;;1.10;;
1593;SDS011;790;47.000;16.084;2023-04-24T15:00:46;1.30;;;1.20;;
1593;SDS011;790;47.000;16.084;2023-04-24T15:03:17;1.43;;;1.40;;
1593;SDS011;790;47.000;16.084;2023-04-24T15:05:45;0.90;;;0.90;;
1593;SDS011;790;47.000;16.084;2023-04-24T15:08:12;1.07;;;1.00;;
1593;SDS011;790;47.000;16.084;2023-04-24T15:10:39;0.93;;;0.93;;
1593;SDS011;790;47.000;16.084;2023-04-24T15:13:07;0.80;;;0.80;;
1593;SDS011;790;47.000;16.084;2023-04-24T15:15:36;1.00;;;1.00;;
1593;SDS011;790;47.000;16.084;2023-04-24T15:18:03;0.90;;;0.90;;
1593;SDS011;790;47.000;16.084;2023-04-24T15:20:31;1.17;;;1.10;;
1593;SDS011;790;47.000;16.084;2023-04-24T15:22:58;1.17;;;1.10;;
1593;SDS011;790;47.000;16.084;2023-04-24T15:25:27;0.63;;;0.63;;
1593;SDS011;790;47.000;16.084;2023-04-24T15:27:54;0.80;;;0.80;;
1593;SDS011;790;47.000;16.084;2023-04-24T15:30:21;0.90;;;0.90;;
1593;SDS011;790;47.000;16.084;2023-04-24T15:32:50;1.10;;;1.10;;
1593;SDS011;790;47.000;16.084;2023-04-24T15:35:18;2.07;;;1.87;;
1593;SDS011;790;47.000;16.084;2023-04-24T15:37:45;1.33;;;1.23;;
1593;SDS011;790;47.000;16.084;2023-04-24T15:40:14;3.40;;;2.50;;
1593;SDS011;790;47.000;16.084;2023-04-24T15:42:42;2.77;;;2.40;;
1593;SDS011;790;47.000;16.084;2023-04-24T15:45:10;4.50;;;3.27;;
1593;SDS011;790;47.000;16.084;2023-04-24T15:47:37;4.83;;;3.80;;
1593;SDS011;790;47.000;16.084;2023-04-24T15:50:07;3.60;;;2.90;;
1593;SDS011;790;47.000;16.084;2023-04-24T15:52:35;2.10;;;1.90;;
1593;SDS011;790;47.000;16.084;2023-04-24T15:55:03;1.50;;;1.40;;
1593;SDS011;790;47.000;16.084;2023-04-24T15:57:31;1.90;;;1.80;;
1593;SDS011;790;47.000;16.084;2023-04-24T15:59:58;2.30;;;2.10;;
1593;SDS011;790;47.000;16.084;2023-04-24T16:02:26;2.10;;;1.90;;
1593;SDS011;790;47.000;16.084;2023-04-24T16:04:53;1.97;;;1.83;;
1593;SDS011;790;47.000;16.084;2023-04-24T16:07:22;2.20;;;2.07;;
1593;SDS011;790;47.000;16.084;2023-04-24T16:09:49;1.87;;;1.77;;
1593;SDS011;790;47.000;16.084;2023-04-24T16:12:16;1.70;;;1.60;;
1593;SDS011;790;47.000;16.084;2023-04-24T16:14:43;1.90;;;1.80;;
1593;SDS011;790;47.000;16.084;2023-04-24T16:17:11;1.73;;;1.63;;
1593;SDS011;790;47.000;16.084;2023-04-24T16:19:39;1.40;;;1.30;;
1593;SDS011;790;47.000;16.084;2023-04-24T16:22:06;1.73;;;1.37;;
1593;SDS011;790;47.000;16.084;2023-04-24T16:24:35;1.67;;;1.47;;
1593;SDS011;790;47.000;16.084;2023-04-24T16:27:02;4.00;;;1.87;;